Time;durP1;ratioP1;P1;durP2;ratioP2;P2;SDS_P1;SDS_P2;PMS_P1;PMS_P2;Temp;Humidity;BMP_temperature;BMP_pressure;BME280_temperature;BME280_humidity;BME280_pressure;Samples;Min_cycle;Max_cycle;Signal;HPM_P1;HPM_P2
2021/05/15 00:01:56;;;;;;;3.87;3.22;;;;;;;13.38;59.49;99316.59;4335192;33;34588;-88
2021/05/15 00:04:23;;;;;;;5.87;3.40;;;;;;;13.38;59.58;99313.16;4359860;32;33376;-88
2021/05/15 00:06:49;;;;;;;3.50;3.00;;;;;;;13.40;59.52;99313.97;4347183;33;33802;-88
2021/05/15 00:09:16;;;;;;;3.75;3.22;;;;;;;13.38;59.57;99308.78;4359806;32;34266;-88
2021/05/15 00:11:43;;;;;;;4.40;3.30;;;;;;;13.30;59.51;99312.44;4348363;33;34084;-88
2021/05/15 00:14:09;;;;;;;6.43;3.85;;;;;;;13.18;59.96;99312.66;4360081;32;34303;-88
2021/05/15 00:16:36;;;;;;;3.70;3.30;;;;;;;13.23;59.85;99313.44;4336827;33;34566;-88
2021/05/15 00:19:03;;;;;;;4.85;3.35;;;;;;;13.06;60.36;99318.09;4361480;32;34576;-88
2021/05/15 00:21:29;;;;;;;4.93;3.53;;;;;;;13.09;60.49;99316.31;4348960;33;33485;-87
2021/05/15 00:23:56;;;;;;;5.60;4.12;;;;;;;13.02;60.71;99311.19;4350356;33;34234;-88
2021/05/15 00:26:23;;;;;;;4.82;3.25;;;;;;;13.00;60.85;99321.66;4361292;32;34526;-88
2021/05/15 00:28:49;;;;;;;4.18;3.58;;;;;;;13.04;60.94;99315.50;4349046;33;34260;-88
2021/05/15 00:31:15;;;;;;;5.72;3.87;;;;;;;13.07;60.65;99317.22;4361545;32;33365;-88
2021/05/15 00:33:42;;;;;;;5.35;4.30;;;;;;;12.98;60.84;99312.12;4349221;33;33400;-88
2021/05/15 00:36:09;;;;;;;4.97;3.22;;;;;;;13.06;60.88;99307.66;4361298;32;35102;-88
2021/05/15 00:38:35;;;;;;;3.92;3.53;;;;;;;13.24;60.12;99297.72;4361302;32;34521;-87
2021/05/15 00:41:02;;;;;;;3.78;3.20;;;;;;;13.26;60.00;99295.09;4362802;32;35280;-88
2021/05/15 00:43:29;;;;;;;4.03;3.20;;;;;;;13.27;60.21;99296.81;4364020;32;33515;-88
2021/05/15 00:45:56;;;;;;;5.70;3.83;;;;;;;13.25;60.16;99301.19;4361528;32;34683;-87
2021/05/15 00:48:23;;;;;;;3.25;2.85;;;;;;;13.19;60.30;99307.37;4361236;32;35850;-88
2021/05/15 00:50:50;;;;;;;4.45;3.70;;;;;;;13.19;60.28;99312.63;4361242;32;34058;-88
2021/05/15 00:53:18;;;;;;;4.47;3.47;;;;;;;13.18;60.42;99318.75;4349034;32;34454;-88
2021/05/15 00:55:45;;;;;;;4.65;3.45;;;;;;;13.15;60.47;99312.69;4361359;32;33900;-88
2021/05/15 00:58:12;;;;;;;4.50;3.60;;;;;;;13.07;60.38;99317.22;4349268;33;35762;-88
2021/05/15 01:00:39;;;;;;;5.12;3.45;;;;;;;13.14;60.14;99316.22;4348626;33;33126;-88
2021/05/15 01:03:07;;;;;;;3.75;3.30;;;;;;;13.12;60.16;99318.84;4361000;32;32766;-88
2021/05/15 01:05:33;;;;;;;4.35;3.70;;;;;;;13.12;60.04;99318.84;4361064;32;34973;-87
2021/05/15 01:08:00;;;;;;;4.43;3.35;;;;;;;13.07;60.21;99314.59;4348884;33;35779;-88
2021/05/15 01:10:27;;;;;;;4.15;3.20;;;;;;;13.12;60.08;99312.78;4361093;32;34293;-88
2021/05/15 01:12:55;;;;;;;5.55;3.87;;;;;;;13.01;60.29;99317.28;4349844;33;33610;-88
2021/05/15 01:15:24;;;;;;;3.80;3.40;;;;;;;12.86;60.64;99316.66;4348836;33;35374;-88
2021/05/15 01:17:56;;;;;;;4.20;3.42;;;;;;;13.05;60.34;99313.75;4348693;33;34358;-88
2021/05/15 01:20:24;;;;;;;5.95;3.53;;;;;;;12.93;60.54;99313.06;4336507;33;34411;-88
2021/05/15 01:22:52;;;;;;;4.62;3.55;;;;;;;12.97;60.65;99308.66;4350097;33;33696;-88
2021/05/15 01:25:19;;;;;;;3.92;3.22;;;;;;;13.07;60.27;99307.66;4360470;32;34055;-87
2021/05/15 01:27:46;;;;;;;5.07;3.45;;;;;;;12.99;60.65;99313.84;4360685;32;33955;-88
2021/05/15 01:30:13;;;;;;;4.18;3.53;;;;;;;12.97;60.53;99310.41;4361124;32;34043;-88
2021/05/15 01:32:45;;;;;;;3.95;3.55;;;;;;;13.02;60.50;99312.06;4348603;33;32778;-88
2021/05/15 01:35:14;;;;;;;3.23;2.93;;;;;;;13.05;60.41;99311.12;4360981;32;33950;-87
2021/05/15 01:37:41;;;;;;;4.70;3.58;;;;;;;13.03;60.18;99305.06;4361314;32;33868;-88
2021/05/15 01:40:10;;;;;;;4.32;3.78;;;;;;;12.87;60.67;99312.31;4348765;33;33999;-88
2021/05/15 01:42:36;;;;;;;5.00;3.33;;;;;;;12.94;60.45;99313.91;4361177;32;33283;-88
2021/05/15 01:45:05;;;;;;;5.00;3.70;;;;;;;12.93;60.29;99312.22;4361023;32;33774;-88
2021/05/15 01:47:35;;;;;;;4.12;3.60;;;;;;;12.91;60.42;99312.22;4348638;33;35742;-88
2021/05/15 01:50:04;;;;;;;5.68;4.07;;;;;;;12.85;60.75;99309.72;4348653;32;33516;-88
2021/05/15 01:52:31;;;;;;;4.32;3.90;;;;;;;12.90;60.57;99307.91;4360832;32;34179;-88
2021/05/15 01:54:57;;;;;;;5.05;3.75;;;;;;;12.88;60.73;99296.59;4361028;32;35107;-87
2021/05/15 01:57:24;;;;;;;4.43;4.03;;;;;;;12.82;60.87;99293.25;4336299;33;33873;-88
2021/05/15 01:59:51;;;;;;;6.43;4.87;;;;;;;12.73;61.09;99291.66;4348733;33;34600;-88
2021/05/15 02:02:18;;;;;;;5.90;4.28;;;;;;;12.71;61.24;99298.66;4349634;33;34734;-88
2021/05/15 02:04:45;;;;;;;6.05;5.10;;;;;;;12.87;61.04;99301.88;4360878;32;32973;-88
2021/05/15 02:07:12;;;;;;;5.05;4.55;;;;;;;12.89;60.92;99298.34;4361137;32;35418;-88
2021/05/15 02:09:39;;;;;;;4.85;4.05;;;;;;;12.86;60.72;99303.59;4348373;33;33334;-88
2021/05/15 02:12:05;;;;;;;6.15;4.78;;;;;;;12.87;60.78;99291.44;4361549;32;33620;-88
2021/05/15 02:14:32;;;;;;;6.25;4.75;;;;;;;12.89;60.92;99297.47;4363379;32;34457;-88
2021/05/15 02:16:58;;;;;;;6.03;4.10;;;;;;;12.94;60.57;99290.44;4349440;33;34295;-88
2021/05/15 02:19:25;;;;;;;6.60;4.80;;;;;;;12.97;60.55;99293.00;4360805;32;33958;-88
2021/05/15 02:21:51;;;;;;;6.80;5.07;;;;;;;12.93;60.49;99291.34;4349549;33;34923;-88
2021/05/15 02:24:18;;;;;;;5.40;4.90;;;;;;;12.90;60.57;99280.94;4348392;32;33776;-88
2021/05/15 02:26:44;;;;;;;5.75;5.07;;;;;;;12.86;60.73;99281.84;4348350;33;33958;-88
2021/05/15 02:29:11;;;;;;;6.28;5.15;;;;;;;12.76;60.74;99283.81;4348801;33;35305;-88
2021/05/15 02:31:37;;;;;;;5.72;5.22;;;;;;;12.68;60.95;99280.44;4348404;33;33406;-88
2021/05/15 02:34:04;;;;;;;6.20;5.25;;;;;;;12.76;60.65;99281.19;4360913;32;34610;-88
2021/05/15 02:36:31;;;;;;;6.75;5.70;;;;;;;12.68;60.88;99280.44;4348251;33;34451;-88
2021/05/15 02:39:01;;;;;;;7.47;6.15;;;;;;;12.57;61.35;99289.34;4360506;32;34035;-88
2021/05/15 02:41:27;;;;;;;6.80;5.72;;;;;;;12.42;62.00;99285.22;4360641;32;34146;-88
2021/05/15 02:43:53;;;;;;;6.97;5.43;;;;;;;12.60;61.55;99289.31;4348169;33;32975;-88
2021/05/15 02:46:20;;;;;;;9.88;6.22;;;;;;;12.60;61.75;99287.53;4360629;32;33871;-88
2021/05/15 02:48:47;;;;;;;8.82;6.18;;;;;;;12.42;62.17;99293.03;4360421;32;35279;-88
2021/05/15 02:51:13;;;;;;;8.65;6.53;;;;;;;12.42;62.24;99295.66;4360493;32;32929;-88
2021/05/15 02:53:40;;;;;;;8.90;6.70;;;;;;;12.36;62.49;99297.50;4360487;32;35005;-88
2021/05/15 02:56:06;;;;;;;8.60;6.57;;;;;;;12.35;62.70;99299.25;4348097;33;33958;-88
2021/05/15 02:58:33;;;;;;;7.70;6.85;;;;;;;12.49;62.33;99299.87;4347919;33;34594;-88
2021/05/15 03:00:59;;;;;;;7.10;6.12;;;;;;;12.58;61.84;99301.47;4360402;32;33363;-88
2021/05/15 03:03:26;;;;;;;7.35;5.93;;;;;;;12.84;61.05;99301.91;4360616;32;33789;-88
2021/05/15 03:05:52;;;;;;;8.35;6.25;;;;;;;12.60;61.37;99303.19;4360484;32;35380;-87
2021/05/15 03:08:19;;;;;;;7.25;6.18;;;;;;;12.69;61.09;99307.41;4360497;32;35292;-88
2021/05/15 03:10:46;;;;;;;7.18;5.85;;;;;;;12.76;60.86;99304.69;4360371;32;33505;-88
2021/05/15 03:13:12;;;;;;;6.57;5.45;;;;;;;12.87;60.22;99307.94;4360372;32;34529;-88
2021/05/15 03:15:39;;;;;;;7.05;5.87;;;;;;;12.88;60.14;99308.81;4360384;32;34483;-88
2021/05/15 03:18:11;;;;;;;6.07;5.20;;;;;;;12.77;60.26;99311.59;4359814;32;34158;-88
2021/05/15 03:20:37;;;;;;;7.65;5.87;;;;;;;12.70;60.31;99307.37;4348132;33;34479;-88
2021/05/15 03:23:04;;;;;;;6.60;4.97;;;;;;;12.65;60.24;99306.56;4347988;33;34948;-88
2021/05/15 03:25:31;;;;;;;8.43;6.03;;;;;;;12.57;60.43;99308.47;4348100;33;34251;-88
2021/05/15 03:27:57;;;;;;;11.55;6.10;;;;;;;12.62;60.39;99314.44;4360299;32;34012;-88
2021/05/15 03:30:24;;;;;;;7.25;5.80;;;;;;;12.72;60.26;99310.81;4347738;33;32870;-87
2021/05/15 03:32:50;;;;;;;6.60;5.62;;;;;;;12.69;60.25;99313.47;4347962;32;33402;-87
2021/05/15 03:35:19;;;;;;;7.82;5.40;;;;;;;12.71;60.14;99316.06;4360336;32;34389;-88
2021/05/15 03:37:46;;;;;;;7.03;5.22;;;;;;;12.72;60.09;99310.81;4359877;32;34097;-88
2021/05/15 03:40:13;;;;;;;6.60;5.32;;;;;;;12.64;60.48;99310.09;4360217;32;34698;-88
2021/05/15 03:42:40;;;;;;;6.85;5.57;;;;;;;12.78;60.12;99312.47;4347987;33;34146;-87
2021/05/15 03:45:08;;;;;;;7.15;5.03;;;;;;;12.89;59.97;99316.63;4350570;33;34449;-88
2021/05/15 03:47:35;;;;;;;5.65;4.70;;;;;;;12.79;60.31;99317.66;4347969;33;34333;-87
2021/05/15 03:50:03;;;;;;;4.90;4.32;;;;;;;12.85;60.26;99314.94;4346788;33;33354;-88
2021/05/15 03:52:29;;;;;;;6.07;4.72;;;;;;;12.85;60.33;99312.34;4347532;33;33211;-87
2021/05/15 03:54:56;;;;;;;6.50;4.25;;;;;;;12.87;60.47;99307.94;4347467;33;35733;-88
2021/05/15 03:57:23;;;;;;;7.68;5.28;;;;;;;12.98;60.40;99304.31;4347461;33;33621;-88
2021/05/15 03:59:49;;;;;;;5.15;4.65;;;;;;;13.09;60.16;99310.22;4359838;32;33218;-88
2021/05/15 04:02:21;;;;;;;7.50;4.62;;;;;;;13.06;60.45;99313.75;4347387;33;34191;-88
2021/05/15 04:04:48;;;;;;;6.43;4.25;;;;;;;13.18;60.14;99307.44;4359755;32;35991;-88
2021/05/15 04:07:14;;;;;;;4.90;3.90;;;;;;;13.27;60.10;99317.69;4335103;33;33298;-88
2021/05/15 04:09:41;;;;;;;7.22;4.22;;;;;;;13.17;60.44;99324.00;4359658;32;33149;-88
2021/05/15 04:12:08;;;;;;;5.32;4.18;;;;;;;13.09;60.93;99321.53;4359618;32;33703;-87
2021/05/15 04:19:34;;;;;;;4.85;4.35;;;;;;;13.61;59.88;99326.62;4359730;32;33099;-88
2021/05/15 04:22:02;;;;;;;4.68;4.20;;;;;;;13.40;60.42;99321.81;4335038;33;33252;-87
2021/05/15 04:24:29;;;;;;;5.32;3.80;;;;;;;13.48;60.42;99335.56;4359686;32;35771;-88
2021/05/15 04:26:59;;;;;;;4.87;4.37;;;;;;;13.53;60.42;99324.16;4359271;32;34032;-88
2021/05/15 04:29:26;;;;;;;4.70;4.30;;;;;;;13.63;60.31;99332.69;4359554;32;33555;-87
2021/05/15 04:31:54;;;;;;;7.40;4.93;;;;;;;13.77;60.32;99335.00;4359480;32;33951;-88
2021/05/15 04:34:21;;;;;;;4.75;4.32;;;;;;;14.00;59.93;99333.62;4359446;32;33786;-88
2021/05/15 04:36:47;;;;;;;6.57;4.65;;;;;;;13.92;60.40;99326.84;4347059;33;34004;-87
2021/05/15 04:39:14;;;;;;;7.37;5.85;;;;;;;14.07;60.20;99324.75;4359412;32;33827;-87
2021/05/15 04:41:41;;;;;;;6.12;5.00;;;;;;;14.05;60.49;99321.31;4334744;33;34239;-88
2021/05/15 04:44:07;;;;;;;5.30;4.43;;;;;;;14.12;60.51;99328.13;4359144;32;35387;-88
2021/05/15 04:46:34;;;;;;;5.45;4.95;;;;;;;14.36;60.05;99323.31;4359401;32;34078;-87
2021/05/15 04:49:01;;;;;;;6.35;5.10;;;;;;;14.52;59.55;99320.31;4334604;33;33525;-87
2021/05/15 04:51:28;;;;;;;7.07;4.82;;;;;;;14.48;60.02;99330.84;4359194;32;33857;-88
2021/05/15 04:53:55;;;;;;;6.78;5.00;;;;;;;14.56;59.58;99326.31;4346819;33;35327;-87
2021/05/15 04:56:22;;;;;;;6.00;4.60;;;;;;;14.63;59.42;99325.28;4359270;32;34755;-88
2021/05/15 04:58:49;;;;;;;5.07;4.57;;;;;;;14.69;59.54;99319.91;4359081;32;33763;-87
2021/05/15 05:01:16;;;;;;;8.65;5.20;;;;;;;14.82;59.24;99326.53;4360791;32;33602;-88
2021/05/15 05:03:43;;;;;;;6.40;4.82;;;;;;;14.95;59.24;99321.88;4361302;32;34466;-88
2021/05/15 05:06:09;;;;;;;5.53;4.65;;;;;;;14.93;59.43;99317.50;4350304;33;33965;-88
2021/05/15 05:08:35;;;;;;;4.87;4.40;;;;;;;14.94;59.80;99323.63;4350096;33;34108;-87
2021/05/15 05:11:03;;;;;;;5.70;4.28;;;;;;;14.94;59.92;99328.84;4361127;32;33635;-88
2021/05/15 05:13:29;;;;;;;7.75;4.78;;;;;;;15.08;59.64;99329.38;4348868;33;33910;-87
2021/05/15 05:15:55;;;;;;;4.78;4.28;;;;;;;15.26;59.15;99330.66;4351975;33;33938;-86
2021/05/15 05:18:25;;;;;;;5.47;4.93;;;;;;;15.33;59.03;99325.19;4350026;33;34979;-86
2021/05/15 05:20:52;;;;;;;5.82;4.43;;;;;;;15.43;59.18;99334.53;4348818;33;33764;-86
2021/05/15 05:23:19;;;;;;;5.65;4.12;;;;;;;15.65;59.30;99326.09;4348622;33;35118;-86
2021/05/15 05:25:45;;;;;;;4.87;4.35;;;;;;;15.72;59.30;99335.50;4360884;32;35147;-86
2021/05/15 05:28:15;;;;;;;6.10;4.30;;;;;;;15.82;58.51;99332.59;4348773;33;32634;-86
2021/05/15 05:30:42;;;;;;;4.90;4.22;;;;;;;15.86;57.73;99331.59;4361206;32;34859;-87
2021/05/15 05:33:09;;;;;;;3.95;3.58;;;;;;;15.99;57.39;99339.97;4360969;32;34710;-88
2021/05/15 05:35:36;;;;;;;4.55;3.42;;;;;;;15.99;57.44;99342.59;4361072;32;34845;-88
2021/05/15 05:38:03;;;;;;;5.07;2.92;;;;;;;16.15;57.03;99349.12;4361100;32;33486;-88
2021/05/15 05:40:30;;;;;;;3.25;2.95;;;;;;;16.30;56.07;99338.16;4336663;33;32650;-88
2021/05/15 05:42:56;;;;;;;5.03;3.20;;;;;;;16.47;56.10;99340.28;4348595;32;34847;-88
2021/05/15 05:45:24;;;;;;;4.72;3.35;;;;;;;16.51;55.71;99342.78;4348640;33;34719;-88
2021/05/15 05:47:51;;;;;;;4.35;3.95;;;;;;;16.51;57.32;99342.78;4360824;32;33405;-88
2021/05/15 05:50:17;;;;;;;4.35;3.70;;;;;;;16.75;56.72;99347.25;4361156;32;34154;-88
2021/05/15 05:52:43;;;;;;;4.45;3.97;;;;;;;16.74;56.75;99345.53;4349705;33;36078;-88
2021/05/15 05:55:10;;;;;;;4.55;4.12;;;;;;;16.77;56.41;99342.81;4360889;32;35194;-88
2021/05/15 05:57:37;;;;;;;6.90;4.37;;;;;;;16.90;56.18;99346.75;4361017;32;33692;-88
2021/05/15 06:00:05;;;;;;;5.30;3.87;;;;;;;16.92;57.92;99350.19;4348800;33;33771;-87
2021/05/15 06:02:33;;;;;;;7.78;4.37;;;;;;;17.13;56.47;99348.62;4348134;33;34492;-87
2021/05/15 06:04:59;;;;;;;6.60;4.37;;;;;;;17.30;55.87;99341.03;4360570;32;34742;-87
2021/05/15 06:07:26;;;;;;;4.70;3.33;;;;;;;17.61;55.18;99351.38;4348459;33;33501;-87
2021/05/15 06:09:52;;;;;;;3.42;3.12;;;;;;;17.70;55.44;99345.78;4348611;32;34083;-88
2021/05/15 06:12:20;;;;;;;4.10;3.25;;;;;;;17.77;55.96;99344.63;4348890;33;34549;-87
2021/05/15 06:14:48;;;;;;;4.43;2.80;;;;;;;17.94;55.53;99347.50;4349758;33;34930;-88
2021/05/15 06:17:14;;;;;;;4.30;1.87;;;;;;;18.32;54.75;99350.47;4348437;33;33318;-87
2021/05/15 06:19:42;;;;;;;3.47;2.50;;;;;;;18.44;52.15;99358.75;4360874;32;34531;-88
2021/05/15 06:22:08;;;;;;;5.00;2.25;;;;;;;18.64;52.29;99355.34;4360931;32;35776;-87
2021/05/15 06:24:39;;;;;;;2.37;1.73;;;;;;;18.82;52.10;99352.00;4336143;33;33804;-88
2021/05/15 06:27:07;;;;;;;3.35;1.83;;;;;;;19.08;48.70;99346.50;4360339;32;33660;-87
2021/05/15 06:29:34;;;;;;;2.45;1.92;;;;;;;19.32;47.50;99341.97;4360689;32;34264;-87
2021/05/15 06:32:02;;;;;;;3.47;1.80;;;;;;;19.49;47.75;99339.50;4348593;33;34557;-88
2021/05/15 06:34:29;;;;;;;2.15;1.80;;;;;;;19.61;49.29;99344.25;4336036;33;34534;-88
2021/05/15 06:37:01;;;;;;;1.83;1.73;;;;;;;19.56;48.74;99344.44;4348443;33;34684;-87
2021/05/15 06:39:28;;;;;;;2.60;1.98;;;;;;;19.70;48.41;99337.72;4360695;32;33697;-88
2021/05/15 06:41:55;;;;;;;4.30;1.90;;;;;;;19.86;47.68;99333.44;4360858;32;34187;-88
2021/05/15 06:44:21;;;;;;;2.22;1.75;;;;;;;19.93;47.55;99335.75;4348438;33;35212;-87
2021/05/15 06:46:47;;;;;;;2.58;1.60;;;;;;;20.11;47.44;99336.72;4361723;32;33883;-88
2021/05/15 06:49:14;;;;;;;2.10;1.45;;;;;;;20.38;46.33;99335.44;4349531;33;33399;-87
2021/05/15 06:51:41;;;;;;;2.85;1.52;;;;;;;20.61;46.18;99335.19;4349472;33;34734;-87
2021/05/15 06:54:07;;;;;;;2.70;1.65;;;;;;;20.72;45.13;99332.91;4360409;32;34066;-88
2021/05/15 06:56:34;;;;;;;2.50;1.45;;;;;;;21.06;44.64;99336.56;4348064;33;33533;-89
2021/05/15 06:59:00;;;;;;;1.55;1.02;;;;;;;21.05;44.17;99329.56;4360595;32;33845;-87
2021/05/15 07:01:27;;;;;;;1.83;1.40;;;;;;;21.28;44.81;99331.88;4348060;33;33767;-86
2021/05/15 07:03:54;;;;;;;4.22;2.10;;;;;;;21.47;43.66;99328.22;4360679;32;34400;-87
2021/05/15 07:06:23;;;;;;;5.85;1.87;;;;;;;21.56;43.81;99329.56;4360016;32;34203;-88
2021/05/15 07:08:50;;;;;;;1.40;1.20;;;;;;;21.83;41.80;99325.44;4349057;33;33808;-87
2021/05/15 07:11:18;;;;;;;2.33;1.35;;;;;;;22.12;41.09;99332.72;4359975;32;35271;-87
2021/05/15 07:13:44;;;;;;;5.20;1.50;;;;;;;22.13;39.49;99330.94;4341291;33;34117;-87
2021/05/15 07:16:11;;;;;;;1.60;1.20;;;;;;;22.14;40.29;99335.25;4357406;32;34425;-87
2021/05/15 07:18:39;;;;;;;1.67;1.35;;;;;;;21.82;40.27;99328.19;4348546;33;34703;-87
2021/05/15 07:21:05;;;;;;;3.58;1.55;;;;;;;21.91;40.27;99336.53;4356282;32;35758;-88
2021/05/15 07:23:32;;;;;;;1.92;1.37;;;;;;;21.41;42.25;99338.28;4346272;32;34111;-88
2021/05/15 07:25:59;;;;;;;2.20;1.60;;;;;;;21.51;41.47;99334.22;4359633;32;33187;-88
2021/05/15 07:28:25;;;;;;;3.78;1.85;;;;;;;21.40;40.77;99336.56;4359942;32;33946;-87
2021/05/15 07:30:51;;;;;;;2.25;1.40;;;;;;;21.34;42.44;99337.75;4360121;32;35238;-86
2021/05/15 07:33:18;;;;;;;2.08;1.40;;;;;;;21.40;41.94;99336.56;4347980;32;34348;-87
2021/05/15 07:35:45;;;;;;;1.90;1.48;;;;;;;21.51;40.89;99335.06;4349058;33;33183;-88
2021/05/15 07:38:11;;;;;;;2.85;1.52;;;;;;;21.47;40.83;99332.66;4347485;33;34098;-88
2021/05/15 07:40:38;;;;;;;2.53;1.50;;;;;;;21.33;40.72;99340.44;4359837;32;35181;-88
2021/05/15 07:43:05;;;;;;;2.03;1.10;;;;;;;21.40;39.87;99336.56;4359678;32;34066;-88
2021/05/15 07:45:32;;;;;;;2.30;1.50;;;;;;;21.62;39.46;99342.47;4347582;33;33575;-88
2021/05/15 07:48:00;;;;;;;2.15;1.02;;;;;;;21.47;39.07;99351.16;4359823;32;33950;-84
2021/05/15 07:50:28;;;;;;;2.42;1.70;;;;;;;21.46;40.74;99352.13;4360335;32;33385;-85
2021/05/15 07:52:55;;;;;;;2.53;1.80;;;;;;;21.69;37.71;99348.28;4347326;33;34183;-85
2021/05/15 07:55:22;;;;;;;3.65;1.70;;;;;;;21.82;39.75;99349.34;4347298;32;32855;-86
2021/05/15 07:57:49;;;;;;;2.10;1.23;;;;;;;21.77;40.68;99346.09;4347768;32;33273;-85
2021/05/15 08:00:16;;;;;;;2.25;1.58;;;;;;;22.03;36.71;99349.09;4359934;32;34455;-85
2021/05/15 08:02:43;;;;;;;2.40;1.40;;;;;;;21.58;39.80;99346.19;4359354;32;34064;-85
2021/05/15 08:05:10;;;;;;;1.77;1.35;;;;;;;21.59;40.56;99342.59;4347306;33;33341;-86
2021/05/15 08:07:38;;;;;;;3.20;1.70;;;;;;;21.80;40.00;99338.81;4347310;32;34672;-85
2021/05/15 08:10:07;;;;;;;1.80;1.40;;;;;;;21.75;40.10;99337.37;4347048;33;34428;-86
2021/05/15 08:12:34;;;;;;;2.35;1.27;;;;;;;21.63;39.23;99335.38;4347683;33;33948;-85
2021/05/15 08:15:01;;;;;;;2.35;1.50;;;;;;;21.87;38.79;99342.06;4347697;32;32648;-85
2021/05/15 08:17:29;;;;;;;2.50;1.60;;;;;;;21.93;38.71;99332.00;4360514;32;35134;-85
2021/05/15 08:19:55;;;;;;;2.65;1.30;;;;;;;22.13;38.11;99344.16;4337213;33;35593;-86
2021/05/15 08:22:22;;;;;;;2.08;1.65;;;;;;;22.07;38.05;99348.00;4346783;33;35711;-86
2021/05/15 08:24:49;;;;;;;4.57;1.95;;;;;;;22.04;38.94;99344.63;4359386;32;34292;-85
2021/05/15 08:27:15;;;;;;;3.72;1.73;;;;;;;22.16;39.08;99350.12;4359156;32;34098;-85
2021/05/15 08:29:41;;;;;;;3.33;1.50;;;;;;;22.10;39.43;99350.50;4347909;33;34550;-84
2021/05/15 08:32:08;;;;;;;2.25;1.90;;;;;;;22.56;38.09;99340.00;4358866;32;34405;-85
2021/05/15 08:34:35;;;;;;;4.00;1.90;;;;;;;22.67;38.18;99348.25;4346794;33;33050;-85
2021/05/15 08:37:01;;;;;;;1.62;1.50;;;;;;;22.74;37.28;99346.94;4350030;33;35312;-86
2021/05/15 08:39:28;;;;;;;4.50;1.58;;;;;;;22.54;38.97;99339.22;4348525;33;34059;-86
2021/05/15 08:41:54;;;;;;;2.75;1.50;;;;;;;22.43;38.85;99349.56;4361032;32;34195;-85
2021/05/15 08:44:24;;;;;;;3.03;1.55;;;;;;;22.73;37.82;99339.91;4348272;33;33016;-86
2021/05/15 08:46:52;;;;;;;2.95;1.80;;;;;;;22.84;38.40;99342.84;4336605;33;33432;-85
2021/05/15 08:49:22;;;;;;;2.55;1.50;;;;;;;22.98;38.40;99337.59;4348662;33;35884;-86
2021/05/15 08:51:55;;;;;;;3.67;1.45;;;;;;;23.28;37.51;99340.25;4348770;33;33984;-86
2021/05/15 08:54:22;;;;;;;6.35;1.58;;;;;;;23.61;36.91;99326.78;4336814;33;33770;-89
2021/05/15 08:56:50;;;;;;;5.45;1.90;;;;;;;23.51;36.09;99323.81;4348843;33;33809;-89
2021/05/15 08:59:17;;;;;;;4.43;1.60;;;;;;;23.62;35.36;99323.19;4348852;33;35326;-86
2021/05/15 09:01:45;;;;;;;1.98;1.55;;;;;;;23.87;35.21;99316.28;4361075;32;34275;-88
2021/05/15 09:04:12;;;;;;;2.05;1.25;;;;;;;23.88;35.17;99314.47;4361272;32;34204;-88
2021/05/15 09:06:41;;;;;;;3.58;1.77;;;;;;;23.81;34.66;99315.81;4336547;33;33111;-88
2021/05/15 09:09:09;;;;;;;1.35;1.00;;;;;;;24.13;34.82;99323.50;4345873;33;34820;-89
2021/05/15 09:11:37;;;;;;;2.08;1.20;;;;;;;24.14;34.20;99319.06;4361871;32;33815;-88
2021/05/15 09:14:13;;;;;;;1.83;1.42;;;;;;;24.36;34.39;99314.09;4349648;33;33674;-88
2021/05/15 09:16:54;;;;;;;3.72;1.50;;;;;;;24.33;33.44;99316.09;4336552;33;34321;-86
2021/05/15 09:19:27;;;;;;;3.27;1.47;;;;;;;24.61;33.16;99316.88;4368506;32;33848;-87
2021/05/15 09:22:03;;;;;;;1.30;1.20;;;;;;;24.37;31.35;99314.94;4373414;32;34422;-87
2021/05/15 09:24:34;;;;;;;3.83;1.08;;;;;;;24.22;32.67;99316.78;4373010;32;34223;-86
2021/05/15 09:27:07;;;;;;;3.87;1.90;;;;;;;24.30;32.92;99314.47;4373001;32;33594;-86
2021/05/15 09:29:42;;;;;;;2.90;1.17;;;;;;;24.19;32.41;99312.50;4373151;32;34512;-86
2021/05/15 09:32:12;;;;;;;2.00;1.20;;;;;;;24.24;31.94;99304.25;4373601;32;33253;-87
2021/05/15 09:34:48;;;;;;;4.12;1.30;;;;;;;24.05;33.29;99308.97;4349742;33;34160;-89
2021/05/15 09:37:36;;;;;;;1.85;1.10;;;;;;;24.00;33.25;99317.25;4360743;32;34953;-89
2021/05/15 09:40:16;;;;;;;2.42;1.65;;;;;;;23.88;33.17;99311.81;4373433;32;33877;-88
2021/05/15 09:43:01;;;;;;;1.65;1.20;;;;;;;24.04;32.12;99308.13;4370337;32;35222;-87
2021/05/15 09:45:31;;;;;;;2.75;1.17;;;;;;;23.91;32.49;99311.66;4373162;32;33477;-89
2021/05/15 09:48:03;;;;;;;3.15;1.23;;;;;;;23.85;33.10;99306.69;4372511;32;33955;-90
2021/05/15 09:50:36;;;;;;;1.42;1.00;;;;;;;24.03;33.20;99300.25;4374023;32;34287;-88
2021/05/15 09:53:10;;;;;;;1.48;0.85;;;;;;;24.09;32.75;99302.53;4362878;32;34778;-87
2021/05/15 09:55:43;;;;;;;1.23;1.02;;;;;;;23.91;33.69;99307.19;4361128;32;34072;-88
2021/05/15 09:58:11;;;;;;;2.12;1.30;;;;;;;23.97;33.38;99313.91;4373414;32;33796;-88
2021/05/15 10:00:43;;;;;;;2.33;1.12;;;;;;;23.95;33.33;99300.72;4349821;33;34342;-89
2021/05/15 10:03:22;;;;;;;3.55;1.80;;;;;;;24.01;33.58;99302.16;4350239;33;33962;-88
2021/05/15 10:06:23;;;;;;;3.72;1.58;;;;;;;23.83;33.35;99303.28;4373693;32;33021;-88
2021/05/15 10:08:51;;;;;;;3.62;1.67;;;;;;;23.90;33.13;99300.16;4352632;32;35548;-90
2021/05/15 10:11:21;;;;;;;3.40;1.62;;;;;;;23.90;33.73;99300.16;4373202;32;34533;-90
2021/05/15 10:13:50;;;;;;;4.37;1.30;;;;;;;23.95;33.67;99302.53;4373594;32;34763;-89
2021/05/15 10:16:19;;;;;;;6.80;1.30;;;;;;;24.08;33.10;99300.84;4373438;32;33877;-86
2021/05/15 10:18:48;;;;;;;1.62;1.30;;;;;;;24.13;33.81;99298.75;4373542;32;33749;-88
2021/05/15 10:21:16;;;;;;;3.35;1.55;;;;;;;24.16;32.78;99293.25;4373535;32;34012;-88
2021/05/15 10:23:45;;;;;;;4.50;1.42;;;;;;;24.31;32.76;99294.94;4373250;32;34052;-89
2021/05/15 10:26:15;;;;;;;1.62;1.23;;;;;;;24.53;33.23;99289.91;4373438;32;32781;-88
2021/05/15 10:28:45;;;;;;;2.58;1.65;;;;;;;24.52;32.80;99288.22;4361007;32;34325;-89
2021/05/15 10:31:14;;;;;;;2.83;1.42;;;;;;;24.52;31.79;99290.03;4360484;32;35892;-89
2021/05/15 10:33:44;;;;;;;1.58;1.10;;;;;;;24.61;31.84;99290.28;4372537;32;34479;-89
2021/05/15 10:36:23;;;;;;;4.12;1.20;;;;;;;24.53;31.62;99297.06;4372796;32;34667;-87
2021/05/15 10:38:53;;;;;;;2.30;1.25;;;;;;;24.60;31.61;99291.25;4372901;32;33757;-85
2021/05/15 10:41:24;;;;;;;1.87;1.15;;;;;;;24.25;33.04;99283.84;4349585;33;35261;-85
2021/05/15 10:43:53;;;;;;;2.67;0.95;;;;;;;23.82;33.31;99280.34;4372929;32;33952;-87
2021/05/15 10:46:26;;;;;;;2.40;1.20;;;;;;;24.16;33.11;99278.16;4372681;32;32645;-88
2021/05/15 10:49:01;;;;;;;1.48;1.08;;;;;;;24.42;31.89;99276.47;4349376;33;33936;-85
2021/05/15 10:51:36;;;;;;;4.05;1.27;;;;;;;24.38;31.59;99277.63;4372375;32;34734;-86
2021/05/15 10:54:07;;;;;;;1.90;1.00;;;;;;;24.36;30.84;99276.03;4372474;32;34139;-87
2021/05/15 10:56:50;;;;;;;3.72;1.02;;;;;;;24.61;29.81;99279.66;4372994;32;33873;-86
2021/05/15 10:59:20;;;;;;;2.00;1.30;;;;;;;24.84;31.81;99273.69;4372579;32;35273;-88
2021/05/15 11:01:56;;;;;;;1.35;0.65;;;;;;;25.01;30.49;99272.56;4372579;32;34547;-88
2021/05/15 11:04:48;;;;;;;5.68;1.02;;;;;;;24.94;29.84;99262.47;4371744;32;33483;-87
2021/05/15 11:07:21;;;;;;;1.20;0.90;;;;;;;25.11;29.02;99260.34;4373393;32;33399;-89
2021/05/15 11:10:09;;;;;;;2.33;1.33;;;;;;;25.00;29.72;99260.22;4372144;32;33332;-91
2021/05/15 11:12:42;;;;;;;2.10;0.90;;;;;;;25.14;30.20;99265.47;4373216;32;35032;-89
2021/05/15 11:15:15;;;;;;;1.33;0.90;;;;;;;25.15;30.15;99255.69;4373736;32;33415;-91
2021/05/15 11:17:44;;;;;;;4.72;1.00;;;;;;;25.26;29.43;99253.13;4373002;32;32585;-90
2021/05/15 11:20:19;;;;;;;1.80;0.85;;;;;;;25.36;30.39;99243.56;4360479;32;33857;-91
2021/05/15 11:22:51;;;;;;;1.00;0.90;;;;;;;25.32;30.34;99240.25;4374153;32;33823;-89
2021/05/15 11:25:32;;;;;;;3.40;1.17;;;;;;;25.14;29.73;99238.84;4369486;32;33419;-92
2021/05/15 11:28:07;;;;;;;3.22;0.98;;;;;;;25.23;29.07;99235.56;4348155;33;34914;-85
2021/05/15 11:30:43;;;;;;;1.62;1.00;;;;;;;25.47;29.81;99241.03;4347824;33;34003;-86
2021/05/15 11:33:13;;;;;;;1.73;0.80;;;;;;;25.57;30.83;99239.44;4360551;32;34924;-89
2021/05/15 11:35:43;;;;;;;1.95;0.80;;;;;;;25.72;29.37;99240.19;4348183;33;34052;-89
2021/05/15 11:38:21;;;;;;;2.65;0.98;;;;;;;25.84;28.18;99234.81;4348104;33;33303;-89
2021/05/15 11:40:48;;;;;;;1.00;0.70;;;;;;;25.96;27.86;99233.09;4347999;32;33471;-90
2021/05/15 11:43:24;;;;;;;1.17;0.77;;;;;;;25.65;29.95;99238.91;4347081;33;33830;-87
2021/05/15 11:45:52;;;;;;;1.30;0.70;;;;;;;25.55;29.86;99236.03;4347736;33;34292;-90